Sweetwater, Oklahoma
Current Conditions -  °F | °C
As of 6:35 AM on Monday 24 Nov 2014 (Local Time) from KELK Reporting Station
Clear Clear  
Wind Chill: 29°   Ceiling: Unl
Heat Index: 36°   Visibility: 10mi
Dew Point: 27°   Wind: 9mph
Humidity: 70%   Direction: 310°NW
Pressure: 29.99"   Gusts: NA
Location:  35.42°N, 99.91°W
Report Text: KELK 241235Z AUTO 31008KT 10SM CLR 02/M03 A2999 RMK AO2
Loading
Personal Weather Stations






























Interactive Weather Map New forecast layout! Learn more

10-Day Weather Forecast

Advertisements
Track Severe Weather on mobile